Time;durP1;ratioP1;P1;durP2;ratioP2;P2;SDS_P1;SDS_P2;PMS_P1;PMS_P2;Temp;Humidity;BMP_temperature;BMP_pressure;BME280_temperature;BME280_humidity;BME280_pressure;Samples;Min_cycle;Max_cycle;Signal;HPM_P1;HPM_P2
2022/03/10 00:01:46;;;;;;;25.75;16.10;;;;;;;1.51;50.94;99684.47;2621580;54;20027;-67
2022/03/10 00:04:18;;;;;;;21.77;15.50;;;;;;;1.54;50.70;99685.09;2620976;54;20026;-66
2022/03/10 00:06:48;;;;;;;27.75;15.50;;;;;;;1.54;51.05;99685.09;2621832;39;20403;-65
2022/03/10 00:09:18;;;;;;;27.25;15.00;;;;;;;1.59;50.64;99680.41;2620904;54;20034;-65
2022/03/10 00:11:48;;;;;;;25.33;15.07;;;;;;;1.64;50.82;99680.88;2622116;39;20443;-65
2022/03/10 00:14:18;;;;;;;26.75;16.42;;;;;;;1.67;50.65;99682.41;2620556;54;20588;-66
2022/03/10 00:16:47;;;;;;;25.98;15.57;;;;;;;1.61;50.65;99675.88;2622540;46;20333;-66
2022/03/10 00:19:20;;;;;;;25.80;16.80;;;;;;;1.63;50.79;99684.44;2621218;54;20082;-64
2022/03/10 00:21:51;;;;;;;25.58;15.93;;;;;;;1.63;50.79;99678.38;2621364;54;20041;-65
2022/03/10 00:24:21;;;;;;;25.25;16.55;;;;;;;1.66;50.90;99678.16;2619047;47;20037;-65
2022/03/10 00:26:51;;;;;;;31.45;17.15;;;;;;;1.71;50.65;99674.28;2620282;54;20077;-65
2022/03/10 00:29:20;;;;;;;26.75;16.77;;;;;;;1.73;50.53;99682.78;2618496;54;20541;-65
2022/03/10 00:31:50;;;;;;;28.85;18.00;;;;;;;1.67;50.37;99685.88;2618429;54;20034;-66
2022/03/10 00:34:22;;;;;;;26.38;16.90;;;;;;;1.62;50.71;99687.13;2618078;54;20030;-65
2022/03/10 00:36:52;;;;;;;26.23;16.50;;;;;;;1.51;50.47;99690.56;2618726;39;20765;-65
2022/03/10 00:39:21;;;;;;;28.27;17.67;;;;;;;1.33;51.13;99690.13;2618479;54;20034;-65
2022/03/10 00:41:51;;;;;;;26.10;16.85;;;;;;;1.17;51.00;99693.00;2618480;54;20042;-64
2022/03/10 00:44:21;;;;;;;26.08;15.82;;;;;;;1.09;51.89;99690.13;2618268;54;20042;-65
2022/03/10 00:46:52;;;;;;;27.77;16.77;;;;;;;1.18;51.92;99691.22;2618441;54;20027;-65
2022/03/10 00:49:24;;;;;;;25.80;15.85;;;;;;;1.31;51.87;99688.59;2618186;54;20053;-65
2022/03/10 00:51:54;;;;;;;25.02;15.85;;;;;;;1.34;51.44;99686.56;2618151;54;20037;-65
2022/03/10 00:54:23;;;;;;;25.80;15.85;;;;;;;1.34;51.36;99685.72;2618450;39;20125;-64
2022/03/10 00:56:53;;;;;;;25.73;16.30;;;;;;;1.29;51.15;99687.84;2617559;47;20030;-64
2022/03/10 00:59:23;;;;;;;27.27;15.38;;;;;;;1.35;51.56;99685.63;2618154;54;20041;-64
2022/03/10 01:01:52;;;;;;;22.88;15.45;;;;;;;1.39;51.61;99686.25;2618254;54;20534;-64
2022/03/10 01:04:25;;;;;;;23.20;15.52;;;;;;;1.41;51.39;99693.00;2617868;54;20030;-64
2022/03/10 01:06:54;;;;;;;28.05;17.77;;;;;;;1.45;51.30;99691.00;2618056;54;20023;-64
2022/03/10 01:09:24;;;;;;;24.58;16.27;;;;;;;1.43;51.06;99688.50;2618565;39;20446;-64
2022/03/10 01:11:54;;;;;;;23.25;15.35;;;;;;;1.43;51.27;99693.72;2618162;54;20034;-64
2022/03/10 01:14:23;;;;;;;27.50;15.15;;;;;;;1.51;51.37;99692.31;2617388;47;20047;-65
2022/03/10 01:16:56;;;;;;;26.95;16.58;;;;;;;1.55;51.36;99689.38;2617612;54;20030;-64
2022/03/10 01:19:29;;;;;;;28.13;15.88;;;;;;;1.47;51.45;99689.94;2618273;54;20542;-64
2022/03/10 01:21:59;;;;;;;26.90;16.48;;;;;;;1.51;51.60;99682.75;2617445;47;20030;-65
2022/03/10 01:24:29;;;;;;;24.42;16.90;;;;;;;1.42;51.27;99688.59;2618042;54;20095;-65
2022/03/10 01:26:58;;;;;;;25.13;16.20;;;;;;;1.37;51.58;99686.34;2617417;47;20041;-64
2022/03/10 01:29:28;;;;;;;27.40;16.58;;;;;;;1.40;51.44;99695.72;2617658;47;20045;-63
2022/03/10 01:31:58;;;;;;;28.08;16.95;;;;;;;1.33;51.40;99690.13;2618073;54;20592;-63
2022/03/10 01:34:30;;;;;;;25.20;16.15;;;;;;;1.30;51.58;99692.94;2617160;47;20549;-65
2022/03/10 01:37:00;;;;;;;26.55;16.80;;;;;;;1.20;51.92;99684.97;2617335;54;20046;-65
2022/03/10 01:39:32;;;;;;;27.90;16.05;;;;;;;1.08;51.85;99683.25;2618056;54;20038;-65
2022/03/10 01:42:03;;;;;;;24.27;16.48;;;;;;;1.01;52.16;99683.81;2617303;54;20145;-64
2022/03/10 01:44:32;;;;;;;25.15;16.15;;;;;;;0.94;52.21;99675.63;2617710;54;20038;-65
2022/03/10 01:47:03;;;;;;;28.63;16.83;;;;;;;0.88;52.41;99676.88;2617664;54;20043;-66
2022/03/10 01:49:37;;;;;;;25.50;15.88;;;;;;;0.93;52.70;99672.16;2617180;54;20027;-66
2022/03/10 01:52:07;;;;;;;30.45;15.77;;;;;;;0.90;52.65;99680.22;2617988;54;20133;-65
2022/03/10 01:54:37;;;;;;;23.33;15.00;;;;;;;0.91;52.97;99671.44;2617209;47;20041;-64
2022/03/10 01:57:07;;;;;;;27.60;15.70;;;;;;;0.91;52.74;99668.03;2618231;54;20035;-64
2022/03/10 01:59:36;;;;;;;25.52;16.42;;;;;;;0.83;52.44;99671.16;2618782;54;20037;-66
2022/03/10 02:02:06;;;;;;;29.63;17.27;;;;;;;0.74;52.57;99670.06;2620845;54;20037;-64
2022/03/10 02:04:39;;;;;;;25.70;15.65;;;;;;;0.66;53.14;99674.97;2618032;54;20114;-66
2022/03/10 02:10:16;;;;;;;23.77;15.75;;;;;;;0.64;53.07;99679.44;2618074;54;20031;-64
2022/03/10 02:12:43;;;;;;;28.05;16.42;;;;;;;0.59;53.28;99667.69;2617890;54;20054;-63
2022/03/10 02:18:02;;;;;;;31.05;17.38;;;;;;;0.51;53.52;99668.22;2617231;54;20042;-65
2022/03/10 02:20:35;;;;;;;26.17;16.33;;;;;;;0.47;53.40;99666.78;2617816;54;20039;-64
2022/03/10 02:23:10;;;;;;;22.85;15.30;;;;;;;0.54;54.00;99665.44;2617102;54;20026;-64
2022/03/10 02:25:40;;;;;;;;;;;;;;;0.58;53.49;99668.66;2618204;39;20447;-63
2022/03/10 02:28:10;;;;;;;26.42;15.65;;;;;;;0.39;53.47;99671.69;2617378;54;19939;-64
2022/03/10 02:30:40;;;;;;;24.02;15.02;;;;;;;0.28;53.96;99672.41;2616829;54;20069;-64
2022/03/10 02:33:10;;;;;;;28.75;16.15;;;;;;;0.35;53.81;99667.63;2617206;54;20029;-64
2022/03/10 02:35:39;;;;;;;25.35;15.80;;;;;;;0.32;54.10;99668.66;2617364;54;20022;-64
2022/03/10 02:38:18;;;;;;;25.20;16.10;;;;;;;0.33;53.95;99669.53;2618262;54;20033;-64
2022/03/10 02:40:47;;;;;;;29.00;15.88;;;;;;;0.26;53.96;99671.72;2617730;54;20023;-65
2022/03/10 02:43:18;;;;;;;27.60;17.35;;;;;;;0.22;54.43;99675.47;2617557;47;20546;-65
2022/03/10 02:45:49;;;;;;;25.77;16.05;;;;;;;0.16;54.18;99676.72;2618593;54;20038;-65
2022/03/10 02:48:20;;;;;;;27.23;16.98;;;;;;;0.15;54.67;99679.41;2618003;54;20034;-64
2022/03/10 02:50:50;;;;;;;24.55;14.63;;;;;;;0.10;54.86;99682.31;2618220;54;20041;-65
2022/03/10 02:53:22;;;;;;;27.17;16.42;;;;;;;0.01;54.93;99676.94;2618578;54;20030;-64
2022/03/10 02:55:52;;;;;;;26.92;17.35;;;;;;;0.01;55.11;99676.94;2619022;39;20433;-64
2022/03/10 02:58:22;;;;;;;24.00;15.68;;;;;;;0.02;55.13;99676.00;2619410;54;20026;-64
2022/03/10 03:00:52;;;;;;;27.77;16.90;;;;;;;0.04;55.10;99674.09;2623259;54;20038;-67
2022/03/10 03:03:22;;;;;;;24.50;16.58;;;;;;;0.01;55.13;99675.16;2621629;51;20129;-65
2022/03/10 03:05:52;;;;;;;27.65;16.48;;;;;;;-0.03;55.30;99668.50;2622845;54;20098;-65
2022/03/10 03:08:24;;;;;;;26.20;15.73;;;;;;;-0.03;55.23;99674.53;2622118;54;20041;-64
2022/03/10 03:10:54;;;;;;;25.35;14.70;;;;;;;0.02;55.58;99673.38;2623657;39;20398;-65
2022/03/10 03:13:23;;;;;;;22.45;14.25;;;;;;;0.01;55.10;99669.97;2623268;54;20556;-64
2022/03/10 03:15:53;;;;;;;25.83;15.65;;;;;;;-0.07;54.91;99675.69;2622994;54;20042;-64
2022/03/10 03:18:23;;;;;;;21.52;14.00;;;;;;;-0.06;55.17;99672.13;2622586;47;20562;-64
2022/03/10 03:20:52;;;;;;;22.70;14.07;;;;;;;-0.04;55.24;99685.88;2622642;51;20033;-65
2022/03/10 03:23:25;;;;;;;24.33;14.57;;;;;;;0.06;55.04;99685.25;2620029;54;20039;-64
2022/03/10 03:25:55;;;;;;;28.60;15.40;;;;;;;0.12;55.17;99684.81;2619004;54;20022;-65
2022/03/10 03:28:25;;;;;;;24.85;16.50;;;;;;;0.09;55.06;99683.28;2620934;54;20026;-64
2022/03/10 03:30:55;;;;;;;24.08;15.85;;;;;;;-0.02;55.29;99688.34;2619898;47;20066;-67
2022/03/10 03:33:24;;;;;;;26.77;16.20;;;;;;;-0.07;55.52;99677.44;2622403;54;20034;-65
2022/03/10 03:35:54;;;;;;;26.52;15.65;;;;;;;-0.03;55.71;99689.31;2622266;47;20030;-64
2022/03/10 03:38:26;;;;;;;24.38;16.15;;;;;;;0.01;55.90;99692.53;2622429;49;20038;-65
2022/03/10 03:40:56;;;;;;;26.67;16.52;;;;;;;0.15;56.01;99695.00;2625386;39;20457;-64
2022/03/10 03:43:26;;;;;;;27.73;17.25;;;;;;;0.15;54.96;99684.59;2624135;39;20441;-65
2022/03/10 03:45:56;;;;;;;27.20;16.17;;;;;;;0.00;55.19;99686.50;2621943;54;20058;-64
2022/03/10 03:48:26;;;;;;;25.63;15.98;;;;;;;-0.09;55.27;99682.72;2622808;31;20515;-66
2022/03/10 03:50:56;;;;;;;30.77;16.88;;;;;;;-0.11;55.53;99683.78;2621913;54;20057;-64
2022/03/10 03:53:28;;;;;;;25.42;16.08;;;;;;;-0.05;55.64;99679.00;2622047;54;20033;-63
2022/03/10 03:55:58;;;;;;;24.90;16.52;;;;;;;-0.04;55.87;99688.47;2622142;54;20049;-64
2022/03/10 03:58:28;;;;;;;24.30;15.70;;;;;;;-0.03;56.04;99692.72;2622945;54;20032;-63
2022/03/10 04:00:57;;;;;;;25.30;15.32;;;;;;;-0.06;55.87;99686.91;2623162;54;20038;-64
2022/03/10 04:03:27;;;;;;;22.95;14.77;;;;;;;-0.15;55.39;99677.97;2623304;54;20580;-65
2022/03/10 04:05:57;;;;;;;25.35;15.88;;;;;;;-0.21;55.75;99674.94;2623759;54;20546;-67
2022/03/10 04:08:30;;;;;;;28.33;15.35;;;;;;;-0.31;55.93;99672.97;2624285;54;20043;-64
2022/03/10 04:10:59;;;;;;;24.92;15.57;;;;;;;-0.39;56.09;99685.63;2623601;54;20035;-63
2022/03/10 04:13:29;;;;;;;23.60;15.40;;;;;;;-0.42;56.56;99680.63;2623520;54;20038;-63
2022/03/10 04:15:59;;;;;;;24.08;14.60;;;;;;;-0.45;56.44;99683.44;2622495;47;20022;-63
2022/03/10 04:18:29;;;;;;;24.67;15.35;;;;;;;-0.48;56.54;99682.81;2620242;54;20122;-63
2022/03/10 04:20:59;;;;;;;22.90;14.82;;;;;;;-0.43;56.75;99696.31;2622021;39;20407;-64
2022/03/10 04:23:31;;;;;;;27.00;15.95;;;;;;;-0.35;56.76;99688.84;2620251;39;20418;-63
2022/03/10 04:26:01;;;;;;;25.45;15.00;;;;;;;-0.44;56.83;99687.69;2621171;54;20136;-63
2022/03/10 04:28:31;;;;;;;24.00;15.02;;;;;;;-0.48;56.52;99685.41;2621023;54;20034;-65
2022/03/10 04:31:00;;;;;;;25.25;15.68;;;;;;;-0.41;57.09;99686.66;2620484;47;20030;-64
2022/03/10 04:33:30;;;;;;;25.77;15.48;;;;;;;-0.41;57.00;99687.50;2621920;47;20034;-65
2022/03/10 04:36:00;;;;;;;25.73;14.23;;;;;;;-0.40;56.60;99688.34;2622155;54;20039;-65
2022/03/10 04:38:32;;;;;;;22.65;15.00;;;;;;;-0.53;56.90;99698.69;2622793;54;20051;-64
2022/03/10 04:41:02;;;;;;;24.00;15.20;;;;;;;-0.59;57.27;99696.50;2622503;47;20037;-62
2022/03/10 04:43:31;;;;;;;25.20;15.23;;;;;;;-0.64;57.28;99695.97;2621370;47;20030;-64
2022/03/10 04:46:03;;;;;;;26.33;16.65;;;;;;;-0.67;57.40;99706.53;2621471;47;20034;-64
2022/03/10 04:48:33;;;;;;;25.60;15.95;;;;;;;-0.68;57.64;99697.91;2622805;54;20046;-64
2022/03/10 04:51:03;;;;;;;24.23;15.27;;;;;;;-0.59;57.91;99693.88;2623484;54;20038;-64
2022/03/10 04:53:35;;;;;;;25.85;16.45;;;;;;;-0.54;57.81;99694.41;2622627;54;20038;-65
2022/03/10 04:56:05;;;;;;;23.17;14.95;;;;;;;-0.52;57.73;99697.75;2622673;54;20038;-64
2022/03/10 04:58:35;;;;;;;23.67;14.88;;;;;;;-0.55;57.58;99696.19;2622766;54;20038;-66
2022/03/10 05:01:05;;;;;;;24.80;14.75;;;;;;;-0.53;57.40;99699.53;2619782;54;20070;-66
2022/03/10 05:03:35;;;;;;;29.73;16.33;;;;;;;-0.56;57.35;99699.72;2619204;39;20808;-64
2022/03/10 05:06:04;;;;;;;32.33;17.33;;;;;;;-0.56;57.15;99699.72;2618000;54;20022;-63
2022/03/10 05:08:36;;;;;;;28.08;15.38;;;;;;;-0.53;57.27;99702.13;2617676;54;20027;-62
2022/03/10 05:11:06;;;;;;;27.92;15.82;;;;;;;-0.56;57.49;99704.91;2618255;54;20026;-63
2022/03/10 05:13:36;;;;;;;27.25;15.75;;;;;;;-0.66;57.54;99701.25;2618122;54;20572;-64
2022/03/10 05:16:06;;;;;;;27.10;16.02;;;;;;;-0.78;57.67;99699.44;2617805;54;20525;-64
2022/03/10 05:18:36;;;;;;;21.80;14.38;;;;;;;-0.83;57.90;99698.91;2618227;54;20122;-65
2022/03/10 05:21:06;;;;;;;25.73;15.05;;;;;;;-0.86;57.90;99706.88;2618182;54;20085;-65
2022/03/10 05:23:41;;;;;;;25.50;16.27;;;;;;;-0.78;58.20;99707.22;2618480;54;20048;-65
2022/03/10 05:26:10;;;;;;;25.80;15.30;;;;;;;-0.80;58.28;99709.94;2618060;54;20652;-65
2022/03/10 05:28:40;;;;;;;29.73;15.93;;;;;;;-0.80;58.06;99699.53;2617468;47;20037;-65
2022/03/10 05:31:10;;;;;;;29.13;16.35;;;;;;;-0.86;58.17;99699.09;2618560;54;20070;-65
2022/03/10 05:33:41;;;;;;;24.15;14.95;;;;;;;-0.83;58.20;99699.72;2619153;54;20031;-66
2022/03/10 05:36:11;;;;;;;24.20;14.82;;;;;;;-0.81;58.55;99697.06;2617770;47;20061;-64
2022/03/10 05:38:44;;;;;;;24.92;14.93;;;;;;;-0.69;58.46;99704.06;2618324;54;20035;-66
2022/03/10 05:41:14;;;;;;;22.98;14.75;;;;;;;-0.62;58.33;99705.28;2617917;47;20038;-63
2022/03/10 05:43:44;;;;;;;25.08;15.32;;;;;;;-0.56;57.81;99704.91;2617858;54;20046;-63
2022/03/10 05:46:13;;;;;;;32.10;15.10;;;;;;;-0.52;58.07;99708.16;2617578;54;20034;-65
2022/03/10 05:48:47;;;;;;;25.30;16.25;;;;;;;-0.55;57.44;99708.34;2618166;54;20553;-64
2022/03/10 05:51:16;;;;;;;24.67;15.02;;;;;;;-0.55;57.73;99709.16;2618397;54;20045;-66
2022/03/10 05:53:50;;;;;;;23.73;15.10;;;;;;;-0.52;58.11;99703.78;2618552;47;20035;-64
2022/03/10 05:56:20;;;;;;;21.25;14.23;;;;;;;-0.50;57.66;99709.69;2621177;54;20026;-65
2022/03/10 05:58:50;;;;;;;22.05;15.13;;;;;;;-0.44;57.87;99718.88;2621776;54;20032;-66
2022/03/10 06:01:20;;;;;;;23.35;14.95;;;;;;;-0.40;57.54;99722.94;2622092;54;20030;-64
2022/03/10 06:03:50;;;;;;;25.42;15.32;;;;;;;-0.43;57.51;99719.69;2621873;54;20023;-65
2022/03/10 06:06:19;;;;;;;26.17;16.33;;;;;;;-0.39;57.96;99721.16;2622316;39;20462;-64
2022/03/10 06:08:53;;;;;;;28.45;16.30;;;;;;;-0.36;57.88;99721.81;2621719;54;20023;-64
2022/03/10 06:11:23;;;;;;;26.02;16.02;;;;;;;-0.25;57.80;99721.06;2621637;54;20034;-65
2022/03/10 06:13:53;;;;;;;26.02;15.13;;;;;;;-0.28;57.57;99721.31;2621443;54;20027;-64
2022/03/10 06:16:22;;;;;;;23.52;14.70;;;;;;;-0.24;57.38;99719.34;2621510;54;20031;-66
2022/03/10 06:18:54;;;;;;;24.80;14.95;;;;;;;-0.18;56.91;99726.72;2621723;54;20073;-65
2022/03/10 06:21:26;;;;;;;29.23;17.20;;;;;;;-0.26;56.93;99728.03;2622481;54;20060;-65
2022/03/10 06:23:59;;;;;;;28.50;16.75;;;;;;;-0.33;57.09;99728.53;2621753;54;20042;-64
2022/03/10 06:26:28;;;;;;;38.42;19.05;;;;;;;-0.40;57.16;99733.31;2619182;54;20022;-64
2022/03/10 06:28:58;;;;;;;39.85;18.55;;;;;;;-0.37;57.51;99732.28;2618599;51;20038;-64
2022/03/10 06:31:28;;;;;;;30.45;18.05;;;;;;;-0.34;57.77;99732.91;2618700;54;20041;-65
2022/03/10 06:33:58;;;;;;;27.88;16.15;;;;;;;-0.24;57.55;99738.34;2618227;54;20038;-64
2022/03/10 06:36:28;;;;;;;30.95;17.27;;;;;;;-0.13;57.41;99743.66;2618508;47;20018;-64
2022/03/10 06:39:00;;;;;;;23.25;16.17;;;;;;;-0.15;57.19;99744.72;2618798;54;20030;-64
2022/03/10 06:41:29;;;;;;;23.83;14.60;;;;;;;-0.19;57.37;99751.88;2618965;54;20049;-63
2022/03/10 06:43:59;;;;;;;26.02;15.85;;;;;;;-0.10;57.15;99753.84;2618681;54;20038;-63
2022/03/10 06:46:29;;;;;;;31.00;17.00;;;;;;;0.02;57.29;99753.97;2618706;54;20026;-64
2022/03/10 06:48:59;;;;;;;29.25;15.57;;;;;;;-0.03;57.01;99752.53;2618635;54;20126;-63
2022/03/10 06:51:28;;;;;;;24.73;15.70;;;;;;;0.05;56.89;99752.00;2618894;31;20498;-64
2022/03/10 06:54:01;;;;;;;25.38;15.00;;;;;;;0.16;56.89;99756.47;2618693;54;20026;-65
2022/03/10 06:56:31;;;;;;;27.38;16.00;;;;;;;0.14;56.82;99761.78;2618745;54;20035;-64
2022/03/10 06:59:00;;;;;;;25.42;15.75;;;;;;;0.23;57.01;99763.75;2618119;47;20036;-64
2022/03/10 07:01:30;;;;;;;25.20;15.38;;;;;;;0.36;56.97;99768.13;2618711;54;20053;-65
2022/03/10 07:04:00;;;;;;;28.17;17.60;;;;;;;0.49;56.59;99767.22;2618405;54;20134;-64
2022/03/10 07:06:29;;;;;;;27.45;16.95;;;;;;;0.58;56.13;99760.53;2619231;39;20448;-63
2022/03/10 07:09:05;;;;;;;26.92;15.85;;;;;;;0.63;56.32;99766.25;2620305;54;20041;-65
2022/03/10 07:11:35;;;;;;;27.58;16.33;;;;;;;0.72;56.48;99762.19;2621453;54;20045;-65
2022/03/10 07:14:04;;;;;;;26.60;17.13;;;;;;;0.84;56.18;99761.31;2618562;54;20034;-64
2022/03/10 07:16:34;;;;;;;33.25;17.48;;;;;;;0.88;56.31;99770.59;2618431;54;20057;-64
2022/03/10 07:19:08;;;;;;;28.35;17.30;;;;;;;0.98;55.94;99768.19;2618777;54;20027;-65
2022/03/10 07:21:40;;;;;;;31.50;17.58;;;;;;;1.08;55.70;99777.00;2618383;47;20027;-65
2022/03/10 07:24:13;;;;;;;27.52;18.13;;;;;;;1.23;55.85;99772.50;2618497;39;20362;-66
2022/03/10 07:26:43;;;;;;;34.20;18.90;;;;;;;1.30;55.59;99775.47;2619062;39;20398;-65
2022/03/10 07:29:12;;;;;;;27.98;17.60;;;;;;;1.42;55.21;99772.81;2617647;46;20023;-66
2022/03/10 07:31:42;;;;;;;30.48;18.27;;;;;;;1.53;54.71;99769.44;2617801;47;20081;-63
2022/03/10 07:34:12;;;;;;;27.17;17.98;;;;;;;1.60;54.76;99775.06;2618256;54;20034;-65
2022/03/10 07:36:43;;;;;;;29.30;18.40;;;;;;;1.62;54.40;99763.53;2618835;54;20034;-64
2022/03/10 07:39:15;;;;;;;34.05;19.27;;;;;;;1.64;54.80;99764.28;2620461;54;20089;-65
2022/03/10 07:41:45;;;;;;;23.70;15.98;;;;;;;1.62;54.47;99766.16;2622132;54;20031;-65
2022/03/10 07:44:14;;;;;;;28.10;17.25;;;;;;;1.68;54.31;99765.72;2620990;54;20046;-66
2022/03/10 07:46:44;;;;;;;29.30;16.58;;;;;;;1.80;54.20;99764.00;2622163;54;20640;-66
2022/03/10 07:49:14;;;;;;;39.47;21.48;;;;;;;1.95;54.15;99755.00;2623217;54;20554;-64
2022/03/10 07:51:44;;;;;;;29.35;17.35;;;;;;;1.98;53.58;99760.00;2622733;47;20026;-65
2022/03/10 07:54:16;;;;;;;30.90;18.17;;;;;;;2.02;53.74;99758.00;2622300;54;20534;-64
2022/03/10 07:56:46;;;;;;;27.70;18.00;;;;;;;2.13;53.70;99755.44;2623810;47;20045;-67
2022/03/10 07:59:16;;;;;;;25.88;17.38;;;;;;;2.20;52.90;99743.59;2623153;47;20542;-65
2022/03/10 08:01:45;;;;;;;29.90;17.65;;;;;;;2.15;52.78;99753.53;2623338;54;20039;-64
2022/03/10 08:04:15;;;;;;;28.25;17.65;;;;;;;2.11;52.97;99749.47;2620802;54;20037;-66
2022/03/10 08:06:45;;;;;;;35.17;20.27;;;;;;;2.22;52.58;99740.84;2620749;47;20034;-65
2022/03/10 08:09:17;;;;;;;27.88;18.10;;;;;;;2.35;52.78;99740.75;2622604;54;20041;-65
2022/03/10 08:11:47;;;;;;;28.55;18.75;;;;;;;2.41;52.53;99735.91;2622769;54;20043;-64
2022/03/10 08:14:16;;;;;;;28.23;16.92;;;;;;;2.50;52.49;99739.59;2621788;54;20027;-66
2022/03/10 08:16:46;;;;;;;32.58;19.00;;;;;;;2.67;52.28;99728.66;2622338;54;20042;-65
2022/03/10 08:19:16;;;;;;;30.67;18.60;;;;;;;2.77;51.62;99730.53;2622417;39;20445;-66
2022/03/10 08:21:47;;;;;;;27.92;16.83;;;;;;;2.92;51.84;99727.56;2622479;39;20419;-67
2022/03/10 08:24:20;;;;;;;27.52;16.60;;;;;;;3.09;51.65;99726.22;2622027;54;20038;-65
2022/03/10 08:26:49;;;;;;;29.50;19.75;;;;;;;3.27;51.48;99720.50;2622780;54;20574;-65
2022/03/10 08:29:19;;;;;;;30.98;19.45;;;;;;;3.35;50.76;99715.47;2623112;39;20441;-65
2022/03/10 08:31:49;;;;;;;29.92;18.15;;;;;;;3.41;50.34;99714.97;2618985;47;20077;-66
2022/03/10 08:34:19;;;;;;;28.63;18.88;;;;;;;3.51;49.93;99715.03;2618257;54;20077;-65
2022/03/10 08:36:48;;;;;;;29.08;20.10;;;;;;;3.57;49.74;99714.56;2619726;54;20022;-64
2022/03/10 08:39:21;;;;;;;27.30;17.95;;;;;;;3.64;49.96;99706.06;2618783;47;20038;-65
2022/03/10 08:41:53;;;;;;;37.30;22.92;;;;;;;3.82;50.01;99697.66;2617597;47;20034;-66
2022/03/10 08:44:23;;;;;;;32.95;19.75;;;;;;;3.96;49.79;99698.19;2618158;54;20034;-66
2022/03/10 08:46:53;;;;;;;28.13;19.52;;;;;;;4.14;49.75;99700.19;2618762;54;20034;-65
2022/03/10 08:49:22;;;;;;;28.98;18.55;;;;;;;4.37;49.01;99695.66;2618425;54;20039;-65
2022/03/10 08:51:52;;;;;;;33.10;19.10;;;;;;;4.47;48.75;99681.63;2618172;54;20038;-66
2022/03/10 08:54:25;;;;;;;35.30;21.25;;;;;;;4.67;48.72;99682.50;2618167;54;20041;-65
2022/03/10 08:56:54;;;;;;;34.00;20.08;;;;;;;4.82;48.26;99688.22;2618236;54;20042;-64
2022/03/10 08:59:24;;;;;;;31.88;20.20;;;;;;;4.94;48.00;99671.41;2617840;54;20057;-63
2022/03/10 09:01:54;;;;;;;36.58;19.83;;;;;;;5.15;47.83;99668.69;2617756;54;20027;-65
2022/03/10 09:04:29;;;;;;;30.88;19.60;;;;;;;5.37;47.46;99675.44;2617961;54;20034;-65
2022/03/10 09:06:59;;;;;;;26.58;17.73;;;;;;;5.63;46.84;99672.25;2617296;47;20043;-67
2022/03/10 09:09:31;;;;;;;28.48;18.02;;;;;;;5.80;46.79;99674.19;2618165;54;20042;-65
2022/03/10 09:12:01;;;;;;;29.75;17.63;;;;;;;6.04;46.16;99671.13;2618250;54;20039;-64
2022/03/10 09:14:31;;;;;;;27.02;18.52;;;;;;;6.22;46.50;99668.59;2617285;54;20086;-65
2022/03/10 09:17:00;;;;;;;26.45;17.40;;;;;;;6.41;45.84;99667.69;2617946;54;20037;-64
2022/03/10 09:19:30;;;;;;;26.20;18.38;;;;;;;6.61;45.52;99668.41;2617595;47;20030;-65
2022/03/10 09:22:01;;;;;;;26.92;17.20;;;;;;;6.82;45.07;99666.38;2617956;54;20541;-65
2022/03/10 09:24:34;;;;;;;24.17;15.60;;;;;;;6.99;44.65;99663.94;2617342;47;20034;-63
2022/03/10 09:27:05;;;;;;;25.45;15.75;;;;;;;7.19;44.55;99658.38;2618256;54;20166;-64
2022/03/10 09:29:35;;;;;;;23.42;16.90;;;;;;;7.35;43.88;99652.44;2618276;54;20034;-64
2022/03/10 09:32:05;;;;;;;22.40;13.80;;;;;;;7.55;43.69;99644.34;2618144;54;20026;-65
2022/03/10 09:34:35;;;;;;;20.20;14.88;;;;;;;7.77;42.94;99646.50;2617712;54;20022;-65
2022/03/10 09:37:06;;;;;;;20.35;14.63;;;;;;;8.01;41.66;99637.97;2618196;54;20037;-66
2022/03/10 09:39:38;;;;;;;22.80;13.25;;;;;;;8.17;41.47;99638.03;2618144;54;20037;-66
2022/03/10 09:42:11;;;;;;;17.20;11.38;;;;;;;8.43;40.31;99643.28;2617734;47;20065;-65
2022/03/10 09:44:43;;;;;;;16.48;10.73;;;;;;;8.65;39.13;99636.66;2619069;54;20586;-65
2022/03/10 09:47:13;;;;;;;14.15;9.00;;;;;;;8.98;37.50;99636.72;2619942;54;20049;-66
2022/03/10 09:49:43;;;;;;;13.82;9.27;;;;;;;9.20;36.73;99640.53;2618838;54;20039;-66
2022/03/10 09:52:15;;;;;;;13.68;8.45;;;;;;;9.30;36.50;99628.00;2619290;54;20045;-67
2022/03/10 09:54:47;;;;;;;11.50;9.20;;;;;;;9.48;36.28;99627.03;2618874;54;20039;-66
2022/03/10 09:57:19;;;;;;;11.23;8.48;;;;;;;9.60;35.56;99625.72;2618538;47;20026;-66
2022/03/10 09:59:53;;;;;;;10.30;7.78;;;;;;;9.73;35.38;99626.03;2619305;54;20058;-65
2022/03/10 10:02:22;;;;;;;;;;;;;;;9.86;35.15;99621.06;2619589;54;20061;-64
2022/03/10 10:04:52;;;;;;;12.50;7.85;;;;;;;9.90;34.77;99618.91;2619347;54;19942;-63
2022/03/10 10:07:25;;;;;;;9.23;7.53;;;;;;;10.01;34.46;99617.72;2619425;54;20114;-63
2022/03/10 10:09:59;;;;;;;10.60;8.13;;;;;;;10.18;33.68;99614.88;2619618;54;20042;-63
2022/03/10 10:12:30;;;;;;;11.45;8.32;;;;;;;10.24;33.77;99612.53;2618842;47;20034;-65
2022/03/10 10:15:01;;;;;;;9.38;7.03;;;;;;;10.41;33.31;99612.34;2619389;54;20042;-63
2022/03/10 10:17:32;;;;;;;8.95;6.88;;;;;;;10.59;32.71;99611.28;2620421;54;20026;-64
2022/03/10 10:20:22;;;;;;;10.63;5.75;;;;;;;10.74;32.49;99603.44;2624289;54;20550;-65
2022/03/10 10:22:51;;;;;;;9.00;6.57;;;;;;;10.86;31.85;99608.16;2624135;54;20066;-66
2022/03/10 10:25:25;;;;;;;11.02;6.18;;;;;;;10.92;31.34;99606.63;2625129;54;20578;-65
2022/03/10 10:27:55;;;;;;;8.35;5.90;;;;;;;11.03;31.95;99605.41;2623012;54;20027;-64
2022/03/10 10:30:25;;;;;;;7.85;6.15;;;;;;;11.18;31.77;99606.25;2619448;54;20034;-63
2022/03/10 10:32:55;;;;;;;9.38;5.78;;;;;;;11.20;31.29;99601.63;2619303;54;20022;-63
2022/03/10 10:35:28;;;;;;;7.47;6.10;;;;;;;11.29;30.73;99597.91;2618291;47;20019;-64
2022/03/10 10:37:59;;;;;;;7.93;5.82;;;;;;;11.37;30.69;99595.19;2619084;54;20035;-65
2022/03/10 10:40:33;;;;;;;7.97;5.95;;;;;;;11.55;30.43;99592.25;2620561;46;20127;-66
2022/03/10 10:43:06;;;;;;;8.02;5.20;;;;;;;11.70;30.21;99588.78;2623931;54;20053;-65
2022/03/10 10:45:37;;;;;;;7.07;5.38;;;;;;;11.84;29.51;99582.75;2624395;47;20049;-65
2022/03/10 10:48:09;;;;;;;8.57;5.80;;;;;;;11.93;29.39;99580.81;2621230;46;20061;-65
2022/03/10 10:50:41;;;;;;;9.25;5.90;;;;;;;11.99;29.05;99580.06;2618837;54;20046;-65
2022/03/10 10:53:11;;;;;;;7.13;6.10;;;;;;;12.05;29.52;99574.88;2618909;54;20545;-65
2022/03/10 10:55:45;;;;;;;7.20;5.20;;;;;;;12.08;29.64;99573.66;2618607;54;20046;-65
2022/03/10 10:58:17;;;;;;;7.65;4.95;;;;;;;12.18;29.26;99565.47;2618665;54;20034;-64
2022/03/10 11:00:49;;;;;;;5.40;4.45;;;;;;;12.27;28.49;99562.50;2619489;54;20034;-65
2022/03/10 11:03:24;;;;;;;7.03;4.60;;;;;;;12.35;28.83;99565.06;2619807;54;20548;-64
2022/03/10 11:05:55;;;;;;;7.25;4.47;;;;;;;12.36;28.97;99561.41;2619335;54;20073;-65
2022/03/10 11:08:28;;;;;;;4.25;3.83;;;;;;;12.44;29.07;99557.81;2619793;54;20050;-65
2022/03/10 11:11:00;;;;;;;6.03;4.47;;;;;;;12.55;28.42;99552.03;2618707;54;20034;-65
2022/03/10 11:13:30;;;;;;;5.32;4.32;;;;;;;12.60;27.91;99554.94;2618833;54;20031;-66
2022/03/10 11:16:01;;;;;;;6.40;4.45;;;;;;;12.71;27.75;99558.13;2617545;39;20444;-69
2022/03/10 11:18:32;;;;;;;4.70;4.20;;;;;;;12.70;27.89;99549.34;2618087;54;20038;-68
2022/03/10 11:21:29;;;;;;;4.78;4.13;;;;;;;12.79;28.04;99540.25;2619170;54;20030;-69
2022/03/10 11:24:10;;;;;;;4.82;4.20;;;;;;;12.73;27.65;99548.97;2618758;54;20030;-69
2022/03/10 11:26:48;;;;;;;7.78;4.13;;;;;;;12.76;27.64;99548.59;2619216;54;20031;-69
2022/03/10 11:29:24;;;;;;;3.88;3.47;;;;;;;12.82;27.92;99547.03;2619097;54;20038;-69
2022/03/10 11:31:55;;;;;;;4.88;3.30;;;;;;;12.94;27.36;99544.66;2621591;54;20042;-68
2022/03/10 11:34:47;;;;;;;4.05;3.05;;;;;;;13.00;27.35;99547.41;2621024;54;20022;-69
2022/03/10 11:37:37;;;;;;;4.13;3.60;;;;;;;13.01;27.93;99543.72;2623185;54;20038;-70
2022/03/10 11:40:12;;;;;;;4.82;3.30;;;;;;;13.08;27.98;99536.66;2622988;54;20098;-68
2022/03/10 11:42:45;;;;;;;3.22;2.92;;;;;;;13.17;27.96;99532.03;2620902;39;20442;-72
2022/03/10 11:45:18;;;;;;;5.32;2.67;;;;;;;13.31;27.04;99535.66;2620331;54;20034;-69
2022/03/10 11:47:49;;;;;;;3.45;2.80;;;;;;;13.35;27.48;99537.75;2620299;54;20045;-70